Time;durP1;ratioP1;P1;durP2;ratioP2;P2;SDS_P1;SDS_P2;PMS_P1;PMS_P2;Temp;Humidity;BMP_temperature;BMP_pressure;BME280_temperature;BME280_humidity;BME280_pressure;Samples;Min_cycle;Max_cycle;Signal;HPM_P1;HPM_P2
2021/12/27 00:00:46;;;;;;;7.15;3.60;;;-9.90;99.90;;;;;;4988380;28;20486;-77
2021/12/27 00:03:15;;;;;;;9.57;4.97;;;-9.90;99.90;;;;;;4985498;28;20054;-75
2021/12/27 00:05:42;;;;;;;6.82;3.47;;;-9.90;99.90;;;;;;4972700;28;20042;-75
2021/12/27 00:08:09;;;;;;;7.97;4.03;;;-9.90;99.90;;;;;;4990101;28;20046;-76
2021/12/27 00:10:37;;;;;;;6.50;3.63;;;-9.90;99.90;;;;;;4968299;28;20104;-77
2021/12/27 00:13:07;;;;;;;6.47;3.63;;;-9.80;99.90;;;;;;4990905;28;20042;-77
2021/12/27 00:15:35;;;;;;;5.30;3.20;;;-9.80;99.90;;;;;;4989622;28;20047;-77
2021/12/27 00:18:02;;;;;;;5.82;3.58;;;-9.80;99.90;;;;;;4986448;28;20045;-74
2021/12/27 00:20:32;;;;;;;9.23;3.85;;;-9.80;99.90;;;;;;4988229;28;20058;-76
2021/12/27 00:22:59;;;;;;;5.75;4.10;;;-9.80;99.90;;;;;;4991325;28;20097;-76
2021/12/27 00:25:28;;;;;;;7.72;3.08;;;-9.90;99.90;;;;;;4990596;28;20110;-75
2021/12/27 00:27:57;;;;;;;6.60;3.17;;;-9.90;99.90;;;;;;4988402;28;20057;-76
2021/12/27 00:30:26;;;;;;;6.32;3.17;;;-10.00;99.90;;;;;;4985481;28;20042;-75
2021/12/27 00:32:54;;;;;;;6.78;2.72;;;-10.00;99.90;;;;;;4990742;28;20495;-75
2021/12/27 00:35:26;;;;;;;6.45;2.92;;;-10.10;99.90;;;;;;4987134;28;20046;-76
2021/12/27 00:37:55;;;;;;;5.45;2.97;;;-10.10;99.90;;;;;;4976524;28;20052;-76
2021/12/27 00:40:22;;;;;;;8.15;2.83;;;-10.20;99.90;;;;;;4983530;28;20042;-76
2021/12/27 00:42:50;;;;;;;5.10;2.67;;;-10.20;99.90;;;;;;4990242;28;20129;-76
2021/12/27 00:45:20;;;;;;;8.13;3.85;;;-10.20;99.90;;;;;;4970998;28;20055;-76
2021/12/27 00:47:47;;;;;;;5.93;3.47;;;-10.20;99.90;;;;;;4978257;28;20038;-76
2021/12/27 00:50:16;;;;;;;6.07;3.28;;;-10.20;99.90;;;;;;4988473;28;20064;-76
2021/12/27 00:52:43;;;;;;;3.30;2.50;;;-10.20;99.90;;;;;;4990611;28;20050;-77
2021/12/27 00:55:15;;;;;;;6.80;3.67;;;-10.10;99.90;;;;;;4989582;28;20388;-77
2021/12/27 00:57:43;;;;;;;7.25;3.30;;;-10.10;99.90;;;;;;4988235;28;20054;-77
2021/12/27 01:00:14;;;;;;;7.32;3.47;;;-10.10;99.90;;;;;;5004583;28;20069;-77
2021/12/27 01:02:41;;;;;;;8.25;3.67;;;-10.00;99.90;;;;;;4990554;28;20053;-76
2021/12/27 01:05:10;;;;;;;8.38;3.65;;;-9.90;99.90;;;;;;4989748;28;20450;-76
2021/12/27 01:07:38;;;;;;;8.90;3.20;;;-9.90;99.90;;;;;;4988632;28;20043;-76
2021/12/27 01:10:24;;;;;;;6.32;3.55;;;-9.90;99.90;;;;;;4989517;28;20522;-75
2021/12/27 01:13:04;;;;;;;8.10;3.88;;;-9.80;99.90;;;;;;4979365;28;20047;-76
2021/12/27 01:15:47;;;;;;;6.15;3.58;;;-9.80;99.90;;;;;;4982528;28;20057;-76
2021/12/27 01:18:15;;;;;;;;;;;-9.80;99.90;;;;;;4983014;28;20082;-76
2021/12/27 01:20:43;;;;;;;6.05;3.78;;;-9.80;99.90;;;;;;4989112;28;20016;-77
2021/12/27 01:23:12;;;;;;;10.43;3.70;;;-9.80;99.90;;;;;;4981695;28;20585;-77
2021/12/27 01:25:40;;;;;;;7.00;3.85;;;-9.80;99.90;;;;;;4984344;28;20086;-77
2021/12/27 01:28:09;;;;;;;8.15;4.15;;;-9.70;99.90;;;;;;4986617;28;20043;-75
2021/12/27 01:30:46;;;;;;;8.82;4.10;;;-9.70;99.90;;;;;;5001333;28;20046;-76
2021/12/27 01:33:15;;;;;;;11.15;5.38;;;-9.70;99.90;;;;;;4985927;28;20069;-76
2021/12/27 01:35:43;;;;;;;6.47;3.17;;;-9.60;99.90;;;;;;4985048;28;20082;-76
2021/12/27 01:38:15;;;;;;;7.90;3.80;;;-9.50;99.90;;;;;;4987648;28;20432;-76
2021/12/27 01:40:46;;;;;;;7.75;3.92;;;-9.50;99.90;;;;;;4974050;28;20141;-75
2021/12/27 01:43:19;;;;;;;10.27;4.15;;;-9.50;99.90;;;;;;4988374;28;20064;-76
2021/12/27 01:45:54;;;;;;;7.97;4.25;;;-9.50;99.90;;;;;;4990375;28;20058;-77
2021/12/27 01:48:31;;;;;;;5.13;2.97;;;-9.40;99.90;;;;;;4989303;28;20060;-76
2021/12/27 01:51:02;;;;;;;6.40;3.47;;;-9.40;99.90;;;;;;4992235;28;20116;-76
2021/12/27 01:53:32;;;;;;;4.63;3.22;;;-9.30;99.90;;;;;;4987370;28;20050;-76
2021/12/27 01:56:01;;;;;;;6.32;3.92;;;-9.30;99.90;;;;;;4975408;28;20034;-76
2021/12/27 01:58:30;;;;;;;7.38;4.30;;;-9.20;99.90;;;;;;4990915;28;20050;-77
2021/12/27 02:01:00;;;;;;;8.02;3.90;;;-9.10;99.90;;;;;;4996555;28;20137;-77
2021/12/27 02:03:30;;;;;;;9.23;3.30;;;-9.10;99.90;;;;;;4989315;28;20054;-77
2021/12/27 02:05:58;;;;;;;2.50;2.10;;;-9.00;99.90;;;;;;4993243;28;20045;-77
2021/12/27 02:08:26;;;;;;;7.47;3.83;;;-9.00;99.90;;;;;;4986625;28;20054;-78
2021/12/27 02:10:53;;;;;;;6.15;3.33;;;-8.90;99.90;;;;;;4992189;28;20093;-78
2021/12/27 02:13:21;;;;;;;6.90;3.60;;;-8.90;99.90;;;;;;4993655;28;20050;-76
2021/12/27 02:15:49;;;;;;;8.07;4.20;;;-8.80;99.90;;;;;;4991603;28;20338;-76
2021/12/27 02:18:17;;;;;;;5.35;3.42;;;-8.70;99.90;;;;;;4988726;28;20057;-76
2021/12/27 02:20:47;;;;;;;5.97;3.78;;;-8.70;99.90;;;;;;4992054;28;20046;-74
2021/12/27 02:23:17;;;;;;;5.40;3.28;;;-8.60;99.90;;;;;;4993676;28;20435;-75
2021/12/27 02:25:47;;;;;;;7.03;3.65;;;-8.60;99.90;;;;;;4992750;28;20640;-76
2021/12/27 02:28:16;;;;;;;7.38;3.20;;;-8.60;99.90;;;;;;4990870;28;20132;-75
2021/12/27 02:30:46;;;;;;;6.90;3.33;;;-8.50;99.90;;;;;;4984507;28;20054;-75
2021/12/27 02:33:14;;;;;;;4.95;3.50;;;-8.50;99.90;;;;;;4993685;28;20511;-75
2021/12/27 02:35:43;;;;;;;5.13;3.70;;;-8.50;99.90;;;;;;4990785;28;20042;-76
2021/12/27 02:38:15;;;;;;;5.53;3.38;;;-8.50;99.90;;;;;;4992656;28;20057;-76
2021/12/27 02:40:44;;;;;;;7.97;3.80;;;-8.50;99.90;;;;;;4989479;28;20464;-76
2021/12/27 02:43:15;;;;;;;6.47;4.28;;;-8.50;99.90;;;;;;4992137;28;20583;-76
2021/12/27 02:45:45;;;;;;;7.03;3.42;;;-8.50;99.90;;;;;;4989847;28;20062;-76
2021/12/27 02:48:14;;;;;;;7.38;3.42;;;-8.50;99.90;;;;;;4991498;28;20474;-76
2021/12/27 02:50:43;;;;;;;7.28;4.10;;;-8.50;99.90;;;;;;4993419;28;20053;-76
2021/12/27 02:53:12;;;;;;;7.10;4.07;;;-8.40;99.90;;;;;;4990394;28;20077;-76
2021/12/27 02:55:41;;;;;;;6.10;4.13;;;-8.40;99.90;;;;;;4992531;28;20046;-76
2021/12/27 02:58:09;;;;;;;6.32;4.25;;;-8.30;99.90;;;;;;4990727;28;20050;-77
2021/12/27 03:00:40;;;;;;;7.10;3.45;;;-8.30;99.90;;;;;;4987300;28;20549;-76
2021/12/27 03:03:07;;;;;;;7.03;3.67;;;-8.30;99.90;;;;;;4992143;28;20495;-77
2021/12/27 03:05:35;;;;;;;7.13;3.85;;;-8.30;99.90;;;;;;4973910;28;20054;-76
2021/12/27 03:08:04;;;;;;;8.18;3.58;;;-8.30;99.90;;;;;;4991291;28;20070;-76
2021/12/27 03:10:34;;;;;;;5.70;3.45;;;-8.30;99.90;;;;;;4990291;28;20422;-76
2021/12/27 03:13:04;;;;;;;7.30;3.92;;;-8.20;99.90;;;;;;4990856;28;20058;-76
2021/12/27 03:15:32;;;;;;;9.18;3.97;;;-8.20;99.90;;;;;;4990209;28;20489;-76
2021/12/27 03:17:59;;;;;;;11.25;4.28;;;-8.20;99.90;;;;;;4992358;28;20050;-76
2021/12/27 03:20:28;;;;;;;6.82;3.55;;;-8.10;99.90;;;;;;4987865;28;20451;-76
2021/12/27 03:22:56;;;;;;;6.55;3.15;;;-8.10;99.90;;;;;;4991801;28;20042;-77
2021/12/27 03:25:26;;;;;;;9.38;4.10;;;-8.10;99.90;;;;;;4987673;28;20121;-77
2021/12/27 03:27:55;;;;;;;7.75;3.67;;;-8.10;99.90;;;;;;4992200;28;20137;-76
2021/12/27 03:30:25;;;;;;;7.90;3.88;;;-8.10;99.90;;;;;;4986364;28;20145;-76
2021/12/27 03:32:54;;;;;;;10.68;3.63;;;-8.00;99.90;;;;;;4992747;28;20050;-76
2021/12/27 03:35:27;;;;;;;6.85;3.75;;;-8.00;99.90;;;;;;4988593;28;20708;-76
2021/12/27 03:37:59;;;;;;;7.78;3.47;;;-8.00;99.90;;;;;;5002560;28;20050;-77
2021/12/27 03:40:28;;;;;;;7.30;3.50;;;-8.00;99.90;;;;;;4992030;28;20082;-76
2021/12/27 03:42:57;;;;;;;6.88;3.53;;;-8.00;99.90;;;;;;4987502;28;20117;-76
2021/12/27 03:45:28;;;;;;;6.30;3.17;;;-8.00;99.90;;;;;;4988207;28;20051;-77
2021/12/27 03:47:57;;;;;;;6.00;3.72;;;-8.00;99.90;;;;;;4989853;28;20046;-77
2021/12/27 03:50:26;;;;;;;6.30;3.83;;;-8.00;99.90;;;;;;4991448;28;20042;-77
2021/12/27 03:52:54;;;;;;;7.57;3.97;;;-7.90;99.90;;;;;;4989524;28;20050;-77
2021/12/27 03:55:23;;;;;;;9.57;4.05;;;-7.90;99.90;;;;;;4989852;28;20076;-76
2021/12/27 03:57:55;;;;;;;7.03;3.80;;;-7.90;99.90;;;;;;4987102;28;20046;-76
2021/12/27 04:00:33;;;;;;;6.50;4.23;;;-7.80;99.90;;;;;;4986460;28;20055;-76
2021/12/27 04:03:02;;;;;;;5.38;3.67;;;-7.80;99.90;;;;;;5000211;28;20305;-77
2021/12/27 04:05:32;;;;;;;4.97;3.17;;;-7.80;99.90;;;;;;4987701;28;20042;-76
2021/12/27 04:08:09;;;;;;;6.07;3.50;;;-7.80;99.90;;;;;;4990137;28;20148;-77
2021/12/27 04:10:38;;;;;;;7.22;3.58;;;-7.90;99.90;;;;;;4991798;28;20066;-77
2021/12/27 04:13:07;;;;;;;5.63;3.67;;;-7.80;99.90;;;;;;4990206;28;20047;-77
2021/12/27 04:15:37;;;;;;;9.68;3.88;;;-7.80;99.90;;;;;;4978721;28;20427;-77
2021/12/27 04:18:06;;;;;;;6.65;3.75;;;-7.90;99.90;;;;;;4988442;28;20078;-76
2021/12/27 04:20:33;;;;;;;5.60;3.80;;;-7.90;99.90;;;;;;4989086;28;20179;-76
2021/12/27 04:23:01;;;;;;;10.15;4.13;;;-7.90;99.90;;;;;;4982021;28;20089;-76
2021/12/27 04:25:29;;;;;;;6.90;3.90;;;-7.90;99.90;;;;;;4986755;28;20056;-76
2021/12/27 04:27:56;;;;;;;10.05;4.55;;;-7.90;99.90;;;;;;4989052;28;20050;-77
2021/12/27 04:30:24;;;;;;;4.75;3.88;;;-7.90;99.90;;;;;;4989762;28;20563;-76
2021/12/27 04:32:54;;;;;;;7.47;4.35;;;-7.90;99.90;;;;;;4980004;28;20054;-77
2021/12/27 04:35:22;;;;;;;11.63;4.05;;;-7.90;99.90;;;;;;4989480;28;20060;-76
2021/12/27 04:37:51;;;;;;;6.78;4.07;;;-7.90;99.90;;;;;;4991807;28;20050;-77
2021/12/27 04:40:22;;;;;;;8.40;4.30;;;-8.00;99.90;;;;;;5002056;28;20144;-76
2021/12/27 04:42:55;;;;;;;8.45;4.30;;;-8.00;99.90;;;;;;4980274;28;20116;-75
2021/12/27 04:45:23;;;;;;;7.80;4.20;;;-8.00;99.90;;;;;;4985195;28;20056;-75
2021/12/27 04:47:50;;;;;;;9.98;4.65;;;-8.10;99.90;;;;;;4991390;28;20050;-77
2021/12/27 04:50:21;;;;;;;7.82;3.80;;;-8.10;99.90;;;;;;4988607;28;20109;-78
2021/12/27 04:52:52;;;;;;;5.50;3.63;;;-8.10;99.90;;;;;;4973150;28;20146;-77
2021/12/27 04:55:21;;;;;;;8.13;3.40;;;-8.10;99.90;;;;;;4990907;28;20062;-76
2021/12/27 04:57:49;;;;;;;10.38;4.57;;;-8.10;99.90;;;;;;4987362;28;20140;-76
2021/12/27 05:00:17;;;;;;;6.30;4.05;;;-8.20;99.90;;;;;;4983721;28;20580;-76
2021/12/27 05:02:45;;;;;;;8.10;4.32;;;-8.20;99.90;;;;;;4987340;28;20141;-76
2021/12/27 05:05:13;;;;;;;6.78;3.63;;;-8.20;99.90;;;;;;4989055;28;20053;-76
2021/12/27 05:07:42;;;;;;;7.63;4.78;;;-8.30;99.90;;;;;;4989790;28;20069;-76
2021/12/27 05:10:10;;;;;;;5.10;3.72;;;-8.30;99.90;;;;;;4986006;28;20260;-75
2021/12/27 05:12:37;;;;;;;9.93;4.68;;;-8.30;99.90;;;;;;4989088;28;20039;-76
2021/12/27 05:15:06;;;;;;;6.65;3.83;;;-8.40;99.90;;;;;;4980480;28;20085;-77
2021/12/27 05:17:33;;;;;;;6.90;4.15;;;-8.40;99.90;;;;;;4986037;28;20622;-76
2021/12/27 05:20:04;;;;;;;7.70;4.18;;;-8.50;99.90;;;;;;4978362;28;20042;-76
2021/12/27 05:22:32;;;;;;;7.75;3.55;;;-8.60;99.90;;;;;;4988170;28;20057;-76
2021/12/27 05:25:01;;;;;;;8.00;3.97;;;-8.60;99.90;;;;;;4989888;28;20058;-76
2021/12/27 05:27:30;;;;;;;6.72;4.13;;;-8.70;99.90;;;;;;4989143;28;20057;-76
2021/12/27 05:29:57;;;;;;;5.80;3.85;;;-8.80;99.90;;;;;;4993051;28;20049;-77
2021/12/27 05:32:25;;;;;;;8.50;4.40;;;-8.90;99.90;;;;;;4993018;28;20058;-78
2021/12/27 05:34:52;;;;;;;8.38;4.70;;;-9.00;99.90;;;;;;4992081;28;20136;-77
2021/12/27 05:37:20;;;;;;;6.97;4.28;;;-9.10;99.90;;;;;;4989529;28;20053;-77
2021/12/27 05:39:48;;;;;;;10.07;4.63;;;-9.10;99.90;;;;;;4994349;28;20039;-77
2021/12/27 05:42:17;;;;;;;8.07;4.18;;;-9.10;99.90;;;;;;4991306;28;20061;-77
2021/12/27 05:44:44;;;;;;;7.72;4.60;;;-9.10;99.90;;;;;;4990626;28;20038;-77
2021/12/27 05:47:12;;;;;;;12.10;4.75;;;-9.00;99.90;;;;;;4985275;28;20450;-78
2021/12/27 05:49:39;;;;;;;8.55;4.85;;;-9.00;99.90;;;;;;4974368;28;20053;-78
2021/12/27 05:52:08;;;;;;;9.07;4.78;;;-9.00;99.90;;;;;;4992742;28;20046;-77
2021/12/27 05:54:35;;;;;;;8.75;5.43;;;-9.00;99.90;;;;;;4991535;28;20224;-77
2021/12/27 05:57:03;;;;;;;11.98;5.28;;;-9.10;99.90;;;;;;4991269;28;20042;-78
2021/12/27 05:59:33;;;;;;;6.88;4.82;;;-9.20;99.90;;;;;;4993308;28;20450;-80
2021/12/27 06:02:01;;;;;;;9.43;4.70;;;-9.20;99.90;;;;;;5005762;28;20574;-77
2021/12/27 06:04:28;;;;;;;10.32;5.03;;;-9.30;99.90;;;;;;4991753;28;20054;-79
2021/12/27 06:06:55;;;;;;;9.65;5.32;;;-9.30;99.90;;;;;;4991852;28;20137;-79
2021/12/27 06:09:23;;;;;;;9.25;4.72;;;-9.30;99.90;;;;;;4993300;28;20038;-76
2021/12/27 06:11:50;;;;;;;7.30;4.55;;;-9.40;99.90;;;;;;4989458;28;20154;-77
2021/12/27 06:14:19;;;;;;;10.23;4.45;;;-9.40;99.90;;;;;;4993028;28;20054;-77
2021/12/27 06:16:48;;;;;;;9.23;5.47;;;-9.40;99.90;;;;;;4993771;28;20078;-78
2021/12/27 06:19:17;;;;;;;5.55;4.05;;;-9.40;99.90;;;;;;4989533;28;20061;-77
2021/12/27 06:21:45;;;;;;;6.25;3.95;;;-9.40;99.90;;;;;;4991413;28;20427;-78
2021/12/27 06:24:13;;;;;;;8.98;4.53;;;-9.50;99.90;;;;;;4987526;28;20073;-76
2021/12/27 06:26:43;;;;;;;6.22;3.50;;;-9.50;99.90;;;;;;4991896;28;20054;-78
2021/12/27 06:29:11;;;;;;;8.38;4.50;;;-9.50;99.90;;;;;;5002906;28;20088;-78
2021/12/27 06:31:38;;;;;;;9.63;6.00;;;-9.40;99.90;;;;;;4986455;28;20518;-75
2021/12/27 06:34:07;;;;;;;9.23;4.28;;;-9.30;99.90;;;;;;4988263;28;20050;-75
2021/12/27 06:36:34;;;;;;;9.93;4.60;;;-9.20;99.90;;;;;;4989470;28;20085;-74
2021/12/27 06:39:03;;;;;;;6.07;4.32;;;-9.10;99.90;;;;;;4991217;28;21057;-74
2021/12/27 06:41:30;;;;;;;11.68;4.90;;;-9.00;99.90;;;;;;4980331;28;20153;-75
2021/12/27 06:43:58;;;;;;;8.55;5.43;;;-9.00;99.90;;;;;;4992689;28;20086;-75
2021/12/27 06:46:26;;;;;;;7.75;4.65;;;-9.00;99.90;;;;;;4975561;28;20050;-76
2021/12/27 06:48:53;;;;;;;14.10;5.78;;;-9.00;99.90;;;;;;4984197;28;20641;-75
2021/12/27 06:51:22;;;;;;;8.48;5.00;;;-8.90;99.90;;;;;;4991556;28;20498;-75
2021/12/27 06:53:50;;;;;;;14.23;6.15;;;-8.90;99.90;;;;;;5008755;28;20431;-74
2021/12/27 06:56:17;;;;;;;7.78;4.68;;;-8.80;99.90;;;;;;4992118;28;20054;-76
2021/12/27 06:58:45;;;;;;;9.88;4.35;;;-8.80;99.90;;;;;;4994576;28;20046;-76
2021/12/27 07:01:15;;;;;;;7.88;4.97;;;-8.80;99.90;;;;;;4991828;28;20050;-77
2021/12/27 07:03:43;;;;;;;8.82;4.60;;;-8.70;99.90;;;;;;4989855;28;20117;-75
2021/12/27 07:06:11;;;;;;;9.68;4.95;;;-8.70;99.90;;;;;;4991363;28;20042;-75
2021/12/27 07:08:39;;;;;;;9.05;5.07;;;-8.60;99.90;;;;;;4991926;28;20542;-75
2021/12/27 07:11:10;;;;;;;10.15;4.78;;;-8.50;99.90;;;;;;4991764;28;20050;-75
2021/12/27 07:13:37;;;;;;;8.65;4.75;;;-8.50;99.90;;;;;;4992088;28;20097;-76
2021/12/27 07:16:05;;;;;;;8.45;5.15;;;-8.40;99.90;;;;;;4984545;28;20439;-73
2021/12/27 07:18:33;;;;;;;11.25;5.95;;;-8.40;99.90;;;;;;4981927;28;20062;-73
2021/12/27 07:21:00;;;;;;;10.02;5.60;;;-8.30;99.90;;;;;;4991482;28;20549;-73
2021/12/27 07:23:27;;;;;;;10.10;5.22;;;-8.20;99.90;;;;;;5008011;28;20062;-73
2021/12/27 07:25:56;;;;;;;9.95;4.80;;;-8.10;99.90;;;;;;4980256;28;20050;-76
2021/12/27 07:28:24;;;;;;;8.52;4.93;;;-8.10;99.90;;;;;;4986617;28;20058;-72
2021/12/27 07:30:52;;;;;;;9.23;4.78;;;-8.10;99.90;;;;;;4988534;28;20129;-75
2021/12/27 07:33:19;;;;;;;11.55;4.95;;;-8.10;99.90;;;;;;4985759;28;20057;-74
2021/12/27 07:35:47;;;;;;;15.65;5.03;;;-8.00;99.90;;;;;;4990062;28;20060;-73
2021/12/27 07:38:15;;;;;;;12.40;5.47;;;-8.00;99.90;;;;;;4981603;28;20054;-73
2021/12/27 07:40:44;;;;;;;14.88;6.18;;;-7.90;99.90;;;;;;4988166;28;20097;-75
2021/12/27 07:43:13;;;;;;;11.57;5.47;;;-7.90;99.90;;;;;;4988751;28;20586;-73
2021/12/27 07:45:40;;;;;;;10.27;5.22;;;-7.80;99.90;;;;;;4983359;28;20129;-72
2021/12/27 07:48:09;;;;;;;8.43;5.50;;;-7.80;99.90;;;;;;4986225;28;20051;-79
2021/12/27 07:50:37;;;;;;;8.02;4.85;;;-7.70;99.90;;;;;;4987853;28;20050;-80
2021/12/27 07:53:10;;;;;;;13.48;7.20;;;-7.70;99.90;;;;;;4977526;28;20137;-80
2021/12/27 07:55:39;;;;;;;10.45;5.68;;;-7.70;99.90;;;;;;4989621;28;20530;-77
2021/12/27 07:58:07;;;;;;;11.77;5.72;;;-7.60;99.90;;;;;;4986708;28;20093;-78
2021/12/27 08:00:36;;;;;;;12.57;5.45;;;-7.60;99.90;;;;;;4974733;28;20050;-74
2021/12/27 08:03:03;;;;;;;11.07;5.80;;;-7.60;99.90;;;;;;4984182;28;20483;-74
2021/12/27 08:05:31;;;;;;;12.02;6.03;;;-7.60;99.90;;;;;;4964860;28;20133;-74
2021/12/27 08:07:58;;;;;;;11.18;6.03;;;-7.50;99.90;;;;;;4991024;28;20093;-72
2021/12/27 08:10:26;;;;;;;12.13;5.72;;;-7.50;99.90;;;;;;4980072;28;20054;-75
2021/12/27 08:12:55;;;;;;;9.45;5.13;;;-7.40;99.90;;;;;;4987063;28;20145;-75
2021/12/27 08:15:23;;;;;;;14.32;6.07;;;-7.40;99.90;;;;;;4982383;28;20057;-74
2021/12/27 08:17:51;;;;;;;12.88;6.53;;;-7.40;99.90;;;;;;4995253;28;20481;-73
2021/12/27 08:20:22;;;;;;;10.07;5.90;;;-7.40;99.90;;;;;;4984632;28;20050;-75
2021/12/27 08:22:52;;;;;;;11.38;6.35;;;-7.30;99.90;;;;;;4988716;28;20046;-76
2021/12/27 08:25:21;;;;;;;9.85;5.15;;;-7.30;99.90;;;;;;4978345;28;20054;-78
2021/12/27 08:27:49;;;;;;;11.63;4.93;;;-7.30;99.90;;;;;;4984705;28;20057;-78
2021/12/27 08:30:17;;;;;;;10.02;5.28;;;-7.30;99.90;;;;;;4987869;28;20097;-78
2021/12/27 08:32:46;;;;;;;8.80;5.38;;;-7.30;99.90;;;;;;4986041;28;20088;-76
2021/12/27 08:35:17;;;;;;;23.05;6.80;;;-7.30;99.90;;;;;;4987081;28;20046;-73
2021/12/27 08:37:45;;;;;;;10.50;6.43;;;-7.30;99.90;;;;;;4981377;28;20054;-76
2021/12/27 08:40:14;;;;;;;14.50;6.85;;;-7.30;99.90;;;;;;4979176;28;20110;-74
2021/12/27 08:42:42;;;;;;;11.45;6.10;;;-7.30;99.90;;;;;;4981007;28;20042;-75
2021/12/27 08:45:11;;;;;;;12.75;6.35;;;-7.30;99.90;;;;;;4990148;28;20046;-75
2021/12/27 08:47:40;;;;;;;17.00;7.65;;;-7.30;99.90;;;;;;4941443;28;21623;-76
2021/12/27 08:50:12;;;;;;;11.88;6.13;;;-7.20;99.90;;;;;;4992250;28;20042;-74
2021/12/27 08:52:42;;;;;;;14.90;6.40;;;-7.20;99.90;;;;;;4981072;28;20054;-74
2021/12/27 08:55:11;;;;;;;13.00;6.55;;;-7.20;99.90;;;;;;4984563;28;21205;-75
2021/12/27 08:57:39;;;;;;;12.95;6.60;;;-7.10;99.90;;;;;;4986511;28;20078;-73
2021/12/27 09:00:10;;;;;;;10.43;5.65;;;-7.10;99.90;;;;;;4991776;28;20096;-75
2021/12/27 09:02:38;;;;;;;9.18;5.80;;;-7.00;99.90;;;;;;4993115;28;20045;-75
2021/12/27 09:05:08;;;;;;;11.93;5.47;;;-7.00;99.90;;;;;;4993357;28;20079;-75
2021/12/27 09:07:36;;;;;;;8.25;5.15;;;-6.90;99.90;;;;;;4991749;28;20075;-78
2021/12/27 09:10:09;;;;;;;18.08;7.22;;;-6.90;99.90;;;;;;4993069;28;20101;-77
2021/12/27 09:12:38;;;;;;;13.93;6.53;;;-6.90;99.90;;;;;;4990843;28;20073;-76
2021/12/27 09:15:06;;;;;;;10.68;6.10;;;-6.90;99.90;;;;;;4993390;28;20045;-76
2021/12/27 09:17:34;;;;;;;18.42;7.72;;;-6.90;99.90;;;;;;4995251;28;20078;-73
2021/12/27 09:20:02;;;;;;;14.30;6.85;;;-6.80;99.90;;;;;;4995070;28;20054;-75
2021/12/27 09:22:30;;;;;;;14.43;7.30;;;-6.90;99.90;;;;;;4992207;28;20448;-74
2021/12/27 09:24:57;;;;;;;12.52;5.85;;;-6.80;99.90;;;;;;4989510;28;20050;-75
2021/12/27 09:27:26;;;;;;;14.50;6.97;;;-6.80;99.90;;;;;;4995257;28;20054;-75
2021/12/27 09:29:53;;;;;;;13.73;6.35;;;-6.70;99.90;;;;;;4996837;28;20586;-78
2021/12/27 09:32:21;;;;;;;10.50;5.72;;;-6.70;99.90;;;;;;4994368;28;20046;-79
2021/12/27 09:34:48;;;;;;;13.15;7.07;;;-6.60;99.90;;;;;;4992778;28;20050;-76
2021/12/27 09:37:16;;;;;;;15.32;7.10;;;-6.60;99.90;;;;;;4992394;28;20065;-77
2021/12/27 09:39:44;;;;;;;16.40;7.22;;;-6.60;99.90;;;;;;4988869;28;20049;-77
2021/12/27 09:42:11;;;;;;;9.75;5.60;;;-6.60;99.90;;;;;;4992869;28;20065;-78
2021/12/27 09:44:42;;;;;;;7.72;5.30;;;-6.50;99.90;;;;;;4993800;28;20105;-76
2021/12/27 09:47:10;;;;;;;10.65;6.05;;;-6.50;99.90;;;;;;4992621;28;20060;-76
2021/12/27 09:49:37;;;;;;;7.95;4.70;;;-6.50;99.90;;;;;;5007717;28;20130;-78
2021/12/27 09:52:06;;;;;;;9.88;5.70;;;-6.50;99.90;;;;;;4993818;28;20491;-76
2021/12/27 09:54:50;;;;;;;10.60;5.72;;;-6.50;99.90;;;;;;4994028;28;20050;-76
2021/12/27 09:57:23;;;;;;;8.68;4.85;;;-6.50;99.90;;;;;;4989544;28;20058;-74
2021/12/27 09:59:53;;;;;;;9.30;5.13;;;-6.60;99.90;;;;;;4991643;28;20058;-74
2021/12/27 10:02:25;;;;;;;8.73;5.55;;;-6.60;99.90;;;;;;4991673;28;20068;-77
2021/12/27 10:04:54;;;;;;;9.45;5.43;;;-6.60;99.90;;;;;;4987745;28;20357;-76
2021/12/27 10:07:24;;;;;;;10.63;4.95;;;-6.60;99.90;;;;;;4993021;28;20050;-75
2021/12/27 10:09:54;;;;;;;10.70;5.05;;;-6.60;99.90;;;;;;4988417;28;20048;-76
2021/12/27 10:12:23;;;;;;;7.35;5.38;;;-6.60;99.90;;;;;;4991560;28;20540;-76
2021/12/27 10:14:57;;;;;;;9.85;4.93;;;-6.70;99.90;;;;;;4985548;28;20117;-77
2021/12/27 10:17:30;;;;;;;9.88;5.28;;;-6.70;99.90;;;;;;4988517;28;20082;-78
2021/12/27 10:20:11;;;;;;;8.65;4.50;;;-6.70;99.90;;;;;;4993048;28;20533;-77
2021/12/27 10:22:41;;;;;;;13.20;5.75;;;-6.70;99.90;;;;;;5008096;28;20054;-79
2021/12/27 10:25:16;;;;;;;10.45;5.60;;;-6.70;99.90;;;;;;4989906;28;20050;-81
2021/12/27 10:27:44;;;;;;;10.50;5.45;;;-6.70;99.90;;;;;;4992445;28;20051;-77
2021/12/27 10:30:18;;;;;;;9.40;5.15;;;-6.60;99.90;;;;;;4969264;28;20129;-77
2021/12/27 10:33:02;;;;;;;9.52;6.05;;;-6.60;99.90;;;;;;4993416;28;20507;-78
2021/12/27 10:35:36;;;;;;;11.48;5.63;;;-6.60;99.90;;;;;;4989817;28;20076;-77
2021/12/27 10:38:20;;;;;;;9.98;5.88;;;-6.70;99.90;;;;;;4992984;28;20054;-76
2021/12/27 10:40:54;;;;;;;9.48;5.10;;;-6.70;99.90;;;;;;4985841;28;20051;-78
2021/12/27 10:43:40;;;;;;;10.88;6.50;;;-6.70;99.90;;;;;;4988659;28;20111;-77
2021/12/27 10:46:14;;;;;;;12.80;5.88;;;-6.70;99.90;;;;;;4983257;28;20047;-78
2021/12/27 10:48:43;;;;;;;10.73;5.60;;;-6.70;99.90;;;;;;4990205;28;20046;-77
2021/12/27 10:51:12;;;;;;;11.98;6.03;;;-6.80;99.90;;;;;;4973318;28;20046;-77
2021/12/27 10:53:49;;;;;;;10.68;5.20;;;-6.90;99.90;;;;;;4991538;28;20046;-78
2021/12/27 10:56:19;;;;;;;10.38;5.32;;;-6.90;99.90;;;;;;4991269;28;20078;-75
2021/12/27 10:58:49;;;;;;;9.32;5.13;;;-6.90;99.90;;;;;;4990762;28;20054;-76
2021/12/27 11:01:19;;;;;;;10.50;5.13;;;-7.00;99.90;;;;;;4991766;28;20061;-77
2021/12/27 11:03:50;;;;;;;13.40;6.50;;;-7.10;99.90;;;;;;4989330;28;20043;-78
2021/12/27 11:06:21;;;;;;;8.13;5.07;;;-7.20;99.90;;;;;;4990496;28;20427;-76
2021/12/27 11:08:51;;;;;;;10.07;5.43;;;-7.30;99.90;;;;;;4992446;28;20058;-76
2021/12/27 11:11:21;;;;;;;8.90;5.47;;;-7.40;99.90;;;;;;4987729;28;20053;-81
2021/12/27 11:13:52;;;;;;;7.50;4.35;;;-7.40;99.90;;;;;;4989190;28;20073;-76
2021/12/27 11:16:22;;;;;;;12.52;5.43;;;-7.30;99.90;;;;;;4990555;28;20046;-79
2021/12/27 11:18:50;;;;;;;10.00;6.00;;;-7.20;99.90;;;;;;4992914;28;20142;-78
2021/12/27 11:21:20;;;;;;;9.10;5.47;;;-7.20;99.90;;;;;;4987068;28;20054;-80
2021/12/27 11:23:50;;;;;;;12.73;5.57;;;-7.00;99.90;;;;;;4988525;28;20054;-76
2021/12/27 11:26:25;;;;;;;10.48;5.47;;;-7.00;99.90;;;;;;4979039;28;20081;-75
2021/12/27 11:28:53;;;;;;;10.40;6.18;;;-6.90;99.90;;;;;;4975845;28;20046;-74
2021/12/27 11:31:29;;;;;;;11.48;5.57;;;-6.80;99.90;;;;;;4990857;28;20050;-75
2021/12/27 11:33:58;;;;;;;11.80;5.70;;;-6.80;99.90;;;;;;4992460;28;20042;-73
2021/12/27 11:36:29;;;;;;;8.82;5.00;;;-6.70;99.90;;;;;;4983809;28;20418;-74
2021/12/27 11:39:19;;;;;;;10.27;5.05;;;-6.70;99.90;;;;;;4990726;28;20064;-76
2021/12/27 11:42:04;;;;;;;10.40;6.07;;;-6.70;99.90;;;;;;4987063;28;20573;-74
2021/12/27 11:44:44;;;;;;;12.68;5.90;;;-6.70;99.90;;;;;;4983807;28;20577;-73
2021/12/27 11:47:14;;;;;;;9.23;5.72;;;-6.70;99.90;;;;;;4989555;28;20050;-74
2021/12/27 11:49:59;;;;;;;14.40;5.97;;;-6.60;99.90;;;;;;4989012;28;20050;-78
2021/12/27 11:52:29;;;;;;;9.90;5.53;;;-6.60;99.90;;;;;;4991164;28;20046;-80
2021/12/27 11:55:01;;;;;;;8.95;5.40;;;-6.60;99.90;;;;;;4986947;28;20081;-79
2021/12/27 11:57:53;;;;;;;8.90;5.57;;;-6.70;99.90;;;;;;4967151;28;20054;-78
2021/12/27 12:00:45;;;;;;;12.67;5.93;;;-6.70;99.90;;;;;;4988931;28;20061;-75
2021/12/27 12:03:20;;;;;;;10.93;6.00;;;-6.80;99.90;;;;;;4984948;28;20049;-74
2021/12/27 12:05:50;;;;;;;8.50;5.57;;;-6.80;99.90;;;;;;5007953;28;20449;-74
2021/12/27 12:08:20;;;;;;;12.55;5.57;;;-6.90;99.90;;;;;;4982882;28;20046;-70
2021/12/27 12:10:55;;;;;;;15.80;6.60;;;-7.00;99.90;;;;;;4989577;28;20051;-74
2021/12/27 12:13:26;;;;;;;15.35;7.13;;;-7.10;99.90;;;;;;4985761;28;20133;-76
2021/12/27 12:16:03;;;;;;;15.13;7.35;;;-7.20;99.90;;;;;;4978919;28;20054;-74
2021/12/27 12:18:33;;;;;;;17.33;8.02;;;-7.30;99.90;;;;;;4970192;28;20539;-75
2021/12/27 12:21:01;;;;;;;15.23;7.75;;;-7.30;99.90;;;;;;4991594;28;20054;-77
2021/12/27 12:23:29;;;;;;;17.50;7.65;;;-7.40;99.90;;;;;;4988486;28;20136;-75
2021/12/27 12:26:01;;;;;;;13.05;7.00;;;-7.40;99.90;;;;;;4987033;28;20427;-78
2021/12/27 12:28:30;;;;;;;12.50;7.65;;;-7.50;99.90;;;;;;4998246;28;20046;-77
2021/12/27 12:30:58;;;;;;;15.77;8.18;;;-7.60;99.90;;;;;;4985894;28;20502;-76
2021/12/27 12:33:47;;;;;;;16.05;8.63;;;-7.60;99.90;;;;;;4982984;28;20434;-78
2021/12/27 12:39:48;;;;;;;20.63;7.90;;;-7.80;99.90;;;;;;4986152;28;20609;-75
2021/12/27 12:42:19;;;;;;;15.63;6.55;;;-7.80;99.90;;;;;;4977508;28;20055;-74
2021/12/27 12:44:49;;;;;;;15.07;7.95;;;-7.90;99.90;;;;;;4987674;28;20058;-75
2021/12/27 12:47:17;;;;;;;14.75;6.63;;;-7.90;99.90;;;;;;4984513;28;20066;-75
2021/12/27 12:49:45;;;;;;;18.45;7.40;;;-7.90;99.90;;;;;;4987081;28;20046;-76
2021/12/27 12:52:15;;;;;;;11.98;6.97;;;-7.90;99.90;;;;;;4986895;28;20042;-75
2021/12/27 12:54:44;;;;;;;17.17;7.15;;;-7.80;99.90;;;;;;4987255;28;20183;-76
2021/12/27 12:57:15;;;;;;;21.88;10.25;;;-7.70;99.90;;;;;;4990246;28;20513;-74
2021/12/27 12:59:48;;;;;;;23.17;10.95;;;-7.60;99.90;;;;;;4987082;28;20053;-75